createdAt,value
2023-02-02T00:00:35.107Z,1008.44
2023-02-02T00:01:35.256Z,1008.41
2023-02-02T00:02:35.474Z,1008.49
2023-02-02T00:03:35.639Z,1008.51
2023-02-02T00:04:35.773Z,1008.49
2023-02-02T00:05:35.971Z,1008.41
2023-02-02T00:06:36.164Z,1008.44
2023-02-02T00:07:36.292Z,1008.45
2023-02-02T00:08:36.464Z,1008.58
2023-02-02T00:09:36.621Z,1008.40
2023-02-02T00:10:36.842Z,1008.29
2023-02-02T00:11:36.963Z,1008.36
2023-02-02T00:12:37.151Z,1008.17
2023-02-02T00:13:37.341Z,1008.29
2023-02-02T00:14:37.530Z,1008.46
2023-02-02T00:15:37.738Z,1008.32
2023-02-02T00:16:37.922Z,1008.43
2023-02-02T00:17:38.077Z,1008.20
2023-02-02T00:18:38.255Z,1008.25
2023-02-02T00:19:38.464Z,1008.32
2023-02-02T00:20:38.642Z,1008.26
2023-02-02T00:21:38.833Z,1008.23
2023-02-02T00:22:38.970Z,1008.37
2023-02-02T00:23:39.118Z,1008.51
2023-02-02T00:24:39.301Z,1008.38
2023-02-02T00:25:39.511Z,1008.40
2023-02-02T00:26:39.724Z,1008.43
2023-02-02T00:27:39.837Z,1008.44
2023-02-02T00:28:40.001Z,1008.35
2023-02-02T00:29:40.192Z,1008.29
2023-02-02T00:30:40.430Z,1008.34
2023-02-02T00:31:40.594Z,1008.35
2023-02-02T00:32:40.746Z,1008.38
2023-02-02T00:33:40.886Z,1008.41
2023-02-02T00:34:41.078Z,1008.28
2023-02-02T00:35:41.227Z,1008.31
2023-02-02T00:36:41.467Z,1008.42
2023-02-02T00:37:41.584Z,1008.23
2023-02-02T00:38:41.771Z,1008.24
2023-02-02T00:39:41.929Z,1008.26
2023-02-02T00:40:42.116Z,1008.32
2023-02-02T00:41:42.289Z,1008.31
2023-02-02T00:42:42.449Z,1008.32
2023-02-02T00:43:42.604Z,1008.29
2023-02-02T00:44:42.760Z,1008.20
2023-02-02T00:45:43.035Z,1008.26
2023-02-02T00:46:43.124Z,1008.23
2023-02-02T00:47:43.323Z,1008.35
2023-02-02T00:48:43.498Z,1008.14
2023-02-02T00:49:43.650Z,1008.30
2023-02-02T00:50:43.826Z,1008.30
2023-02-02T00:51:43.965Z,1008.17
2023-02-02T00:52:44.153Z,1008.25
2023-02-02T00:53:44.344Z,1008.19
2023-02-02T00:54:44.515Z,1008.26
2023-02-02T00:55:44.725Z,1008.24
2023-02-02T00:56:44.845Z,1008.31
2023-02-02T00:57:45.043Z,1008.34
2023-02-02T00:58:45.200Z,1008.38
2023-02-02T00:59:45.384Z,1008.32
2023-02-02T01:00:45.671Z,1008.37
2023-02-02T01:01:45.801Z,1008.24
2023-02-02T01:02:45.956Z,1008.30
2023-02-02T01:03:46.099Z,1008.13
2023-02-02T01:04:46.280Z,1008.23
2023-02-02T01:05:46.457Z,1008.17
2023-02-02T01:06:46.646Z,1008.26
2023-02-02T01:07:46.783Z,1008.31
2023-02-02T01:08:46.995Z,1008.19
2023-02-02T01:09:47.152Z,1008.34
2023-02-02T01:10:47.319Z,1008.27
2023-02-02T01:11:47.477Z,1008.41
2023-02-02T01:12:47.616Z,1008.23
2023-02-02T01:13:47.766Z,1008.24
2023-02-02T01:14:47.967Z,1008.21
2023-02-02T01:15:48.161Z,1008.23
2023-02-02T01:16:48.363Z,1008.22
2023-02-02T01:17:48.493Z,1008.23
2023-02-02T01:18:48.672Z,1008.23
2023-02-02T01:19:48.942Z,1008.22
2023-02-02T01:20:49.044Z,1008.29
2023-02-02T01:21:49.156Z,1008.33
2023-02-02T01:22:49.323Z,1008.28
2023-02-02T01:23:49.486Z,1008.28
2023-02-02T01:24:49.641Z,1008.30
2023-02-02T01:25:49.806Z,1008.20
2023-02-02T01:26:50.020Z,1008.24
2023-02-02T01:27:50.138Z,1008.39
2023-02-02T01:28:50.331Z,1008.35
2023-02-02T01:29:50.491Z,1008.34
2023-02-02T01:30:50.723Z,1008.37
2023-02-02T01:31:50.925Z,1008.21
2023-02-02T01:32:51.020Z,1008.19
2023-02-02T01:33:51.215Z,1008.34
2023-02-02T01:34:51.375Z,1008.36
2023-02-02T01:35:51.561Z,1008.39
2023-02-02T01:36:51.725Z,1008.37
2023-02-02T01:37:51.912Z,1008.30
2023-02-02T01:38:52.062Z,1008.63
2023-02-02T01:39:52.218Z,1008.45
2023-02-02T01:40:52.404Z,1008.50
2023-02-02T01:41:52.551Z,1008.32
2023-02-02T01:42:52.710Z,1008.57
2023-02-02T01:43:52.969Z,1008.47
2023-02-02T01:44:53.100Z,1008.38
2023-02-02T01:45:53.255Z,1008.64
2023-02-02T01:46:53.425Z,1008.81
2023-02-02T01:47:53.587Z,1008.42
2023-02-02T01:48:53.778Z,1008.62
2023-02-02T01:49:53.942Z,1008.44
2023-02-02T01:50:54.124Z,1008.53
2023-02-02T01:51:54.340Z,1008.48
2023-02-02T01:52:54.536Z,1008.58
2023-02-02T01:53:54.654Z,1008.58
2023-02-02T01:54:54.854Z,1008.61
2023-02-02T01:55:54.993Z,1008.56
2023-02-02T01:56:55.182Z,1008.59
2023-02-02T01:57:55.328Z,1008.50
2023-02-02T01:58:55.542Z,1008.53
2023-02-02T01:59:55.699Z,1008.66
2023-02-02T02:00:55.945Z,1008.55
2023-02-02T02:01:56.082Z,1008.62
2023-02-02T02:02:56.243Z,1008.59
2023-02-02T02:03:56.441Z,1008.54
2023-02-02T02:04:56.604Z,1008.59
2023-02-02T02:05:56.776Z,1008.61
2023-02-02T02:06:56.958Z,1008.58
2023-02-02T02:07:57.131Z,1008.58
2023-02-02T02:08:57.294Z,1008.60
2023-02-02T02:09:57.486Z,1008.60
2023-02-02T02:10:57.637Z,1008.60
2023-02-02T02:11:57.837Z,1008.57
2023-02-02T02:12:58.006Z,1008.50
2023-02-02T02:13:58.166Z,1008.69
2023-02-02T02:14:58.361Z,1008.70
2023-02-02T02:15:58.527Z,1008.85
2023-02-02T02:16:58.703Z,1008.65
2023-02-02T02:17:58.854Z,1008.61
2023-02-02T02:18:59.009Z,1008.73
2023-02-02T02:19:59.205Z,1008.48
2023-02-02T02:20:59.348Z,1008.52
2023-02-02T02:21:59.550Z,1008.75
2023-02-02T02:22:59.699Z,1008.99
2023-02-02T02:23:59.885Z,1008.83
2023-02-02T02:25:00.101Z,1008.83
2023-02-02T02:26:00.243Z,1008.75
2023-02-02T02:27:00.441Z,1008.81
2023-02-02T02:28:00.981Z,1008.79
2023-02-02T02:29:00.773Z,1008.73
2023-02-02T02:30:00.955Z,1008.73
2023-02-02T02:31:01.195Z,1008.68
2023-02-02T02:32:01.305Z,1008.66
2023-02-02T02:33:01.442Z,1008.76
2023-02-02T02:34:01.624Z,1008.89
2023-02-02T02:35:01.823Z,1008.86
2023-02-02T02:36:02.023Z,1008.67
2023-02-02T02:37:02.183Z,1008.84
2023-02-02T02:38:02.363Z,1008.77
2023-02-02T02:39:02.528Z,1008.80
2023-02-02T02:40:02.702Z,1008.79
2023-02-02T02:41:02.890Z,1008.81
2023-02-02T02:42:03.030Z,1008.83
2023-02-02T02:43:03.242Z,1008.81
2023-02-02T02:44:03.353Z,1008.75
2023-02-02T02:45:03.556Z,1008.60
2023-02-02T02:46:03.783Z,1008.80
2023-02-02T02:47:03.903Z,1008.82
2023-02-02T02:48:04.075Z,1008.87
2023-02-02T02:49:04.264Z,1008.85
2023-02-02T02:50:04.441Z,1008.86
2023-02-02T02:51:04.644Z,1008.76
2023-02-02T02:52:04.778Z,1008.77
2023-02-02T02:53:04.965Z,1008.71
2023-02-02T02:54:05.147Z,1008.88
2023-02-02T02:55:05.298Z,1008.83
2023-02-02T02:56:05.466Z,1008.91
2023-02-02T02:57:05.656Z,1008.95
2023-02-02T02:58:05.815Z,1008.94
2023-02-02T02:59:05.986Z,1009.00
2023-02-02T03:00:06.175Z,1008.95
2023-02-02T03:01:06.362Z,1008.98
2023-02-02T03:02:06.500Z,1009.02
2023-02-02T03:03:06.680Z,1009.10
2023-02-02T03:04:06.846Z,1009.01
2023-02-02T03:05:07.029Z,1008.90
2023-02-02T03:06:07.218Z,1009.19
2023-02-02T03:07:07.378Z,1009.09
2023-02-02T03:08:07.585Z,1009.29
2023-02-02T03:09:07.747Z,1009.16
2023-02-02T03:10:07.899Z,1009.09
2023-02-02T03:11:08.080Z,1009.17
2023-02-02T03:12:08.250Z,1009.16
2023-02-02T03:13:08.421Z,1009.17
2023-02-02T03:14:08.639Z,1009.24
2023-02-02T03:15:08.816Z,1009.20
2023-02-02T03:16:08.979Z,1009.30
2023-02-02T03:17:09.104Z,1009.19
2023-02-02T03:18:09.334Z,1009.31
2023-02-02T03:19:09.464Z,1009.33
2023-02-02T03:20:09.631Z,1009.45
2023-02-02T03:21:09.833Z,1009.31
2023-02-02T03:22:10.030Z,1009.37
2023-02-02T03:23:10.186Z,1009.37
2023-02-02T03:24:10.339Z,1009.50
2023-02-02T03:25:10.530Z,1009.40
2023-02-02T03:26:10.713Z,1009.44
2023-02-02T03:27:10.910Z,1009.44
2023-02-02T03:28:11.040Z,1009.40
2023-02-02T03:29:11.245Z,1009.51
2023-02-02T03:30:11.377Z,1009.56
2023-02-02T03:31:11.660Z,1009.48
2023-02-02T03:32:11.810Z,1009.51
2023-02-02T03:33:11.944Z,1009.54
2023-02-02T03:34:12.090Z,1009.59
2023-02-02T03:35:12.294Z,1009.56
2023-02-02T03:36:12.425Z,1009.72
2023-02-02T03:37:12.607Z,1009.62
2023-02-02T03:38:12.759Z,1009.73
2023-02-02T03:39:12.938Z,1009.80
2023-02-02T03:40:13.106Z,1009.64
2023-02-02T03:41:13.313Z,1009.74
2023-02-02T03:42:13.466Z,1009.87
2023-02-02T03:43:13.649Z,1009.77
2023-02-02T03:44:13.821Z,1009.89
2023-02-02T03:45:14.020Z,1009.85
2023-02-02T03:46:14.208Z,1009.92
2023-02-02T03:47:14.327Z,1010.00
2023-02-02T03:48:14.519Z,1009.94
2023-02-02T03:49:14.658Z,1009.96
2023-02-02T03:50:14.845Z,1009.96
2023-02-02T03:51:15.044Z,1010.02
2023-02-02T03:52:15.188Z,1010.08
2023-02-02T03:53:15.350Z,1010.07
2023-02-02T03:54:15.493Z,1010.10
2023-02-02T03:55:15.676Z,1010.05
2023-02-02T03:56:15.860Z,1010.07
2023-02-02T03:57:16.043Z,1010.15
2023-02-02T03:58:16.214Z,1010.08
2023-02-02T03:59:16.381Z,1010.00
2023-02-02T04:00:16.589Z,1010.10
2023-02-02T04:01:16.748Z,1010.12
2023-02-02T04:02:16.929Z,1010.18
2023-02-02T04:03:17.107Z,1010.09
2023-02-02T04:04:17.275Z,1010.14
2023-02-02T04:05:17.453Z,1010.18
2023-02-02T04:06:17.630Z,1010.23
2023-02-02T04:07:17.785Z,1010.21
2023-02-02T04:08:17.981Z,1010.26
2023-02-02T04:09:18.133Z,1010.28
2023-02-02T04:10:18.312Z,1010.19
2023-02-02T04:11:18.502Z,1010.35
2023-02-02T04:12:18.707Z,1010.32
2023-02-02T04:13:18.860Z,1010.29
2023-02-02T04:14:18.999Z,1010.35
2023-02-02T04:15:19.175Z,1010.41
2023-02-02T04:16:19.392Z,1010.49
2023-02-02T04:17:19.543Z,1010.54
2023-02-02T04:18:19.719Z,1010.51
2023-02-02T04:19:19.891Z,1010.51
2023-02-02T04:20:20.036Z,1010.58
2023-02-02T04:21:20.205Z,1010.68
2023-02-02T04:22:20.385Z,1010.68
2023-02-02T04:23:20.569Z,1010.63
2023-02-02T04:24:20.767Z,1010.79
2023-02-02T04:25:20.907Z,1010.76
2023-02-02T04:26:21.115Z,1010.84
2023-02-02T04:27:21.292Z,1010.83
2023-02-02T04:28:21.454Z,1010.82
2023-02-02T04:29:21.598Z,1010.88
2023-02-02T04:30:21.808Z,1010.87
2023-02-02T04:31:21.978Z,1010.86
2023-02-02T04:32:22.117Z,1010.88
2023-02-02T04:33:22.297Z,1010.89
2023-02-02T04:34:22.505Z,1010.92
2023-02-02T04:35:22.893Z,1010.89
2023-02-02T04:36:22.822Z,1011.00
2023-02-02T04:37:23.043Z,1010.91
2023-02-02T04:38:23.173Z,1010.99
2023-02-02T04:39:23.360Z,1010.98
2023-02-02T04:40:23.533Z,1011.02
2023-02-02T04:41:23.726Z,1010.98
2023-02-02T04:42:23.917Z,1010.93
2023-02-02T04:43:24.085Z,1011.07
2023-02-02T04:44:24.296Z,1010.93
2023-02-02T04:45:24.925Z,1011.10
2023-02-02T04:46:24.599Z,1011.07
2023-02-02T04:47:24.781Z,1011.15
2023-02-02T04:48:24.982Z,1011.17
2023-02-02T04:49:25.143Z,1011.12
2023-02-02T04:50:25.282Z,1011.17
2023-02-02T04:51:25.459Z,1011.16
2023-02-02T04:52:25.656Z,1011.11
2023-02-02T04:53:25.838Z,1011.20
2023-02-02T04:54:26.026Z,1011.21
2023-02-02T04:55:26.480Z,1011.23
2023-02-02T04:56:26.382Z,1011.26
2023-02-02T04:57:26.545Z,1011.28
2023-02-02T04:58:26.745Z,1011.24
2023-02-02T04:59:26.885Z,1011.24
2023-02-02T05:00:27.071Z,1011.28
2023-02-02T05:01:27.304Z,1011.28
2023-02-02T05:02:27.480Z,1011.27
2023-02-02T05:03:27.598Z,1011.30
2023-02-02T05:04:27.801Z,1011.37
2023-02-02T05:05:27.907Z,1011.32
2023-02-02T05:06:28.091Z,1011.32
2023-02-02T05:07:28.276Z,1011.26
2023-02-02T05:08:28.483Z,1011.30
2023-02-02T05:09:28.642Z,1011.43
2023-02-02T05:10:28.811Z,1011.39
2023-02-02T05:11:28.994Z,1011.41
2023-02-02T05:12:29.206Z,1011.41
2023-02-02T05:13:29.344Z,1011.40
2023-02-02T05:14:29.534Z,1011.49
2023-02-02T05:15:29.711Z,1011.47
2023-02-02T05:16:29.920Z,1011.44
2023-02-02T05:17:30.093Z,1011.48
2023-02-02T05:18:30.230Z,1011.58
2023-02-02T05:19:30.410Z,1011.52
2023-02-02T05:20:30.597Z,1011.55
2023-02-02T05:21:30.744Z,1011.62
2023-02-02T05:22:30.974Z,1011.54
2023-02-02T05:23:31.092Z,1011.63
2023-02-02T05:24:31.276Z,1011.66
2023-02-02T05:25:31.469Z,1011.70
2023-02-02T05:26:31.691Z,1011.65
2023-02-02T05:27:31.823Z,1011.66
2023-02-02T05:28:31.978Z,1011.68
2023-02-02T05:29:32.140Z,1011.65
2023-02-02T05:30:33.619Z,1011.69
2023-02-02T05:31:32.519Z,1011.79
2023-02-02T05:32:32.722Z,1011.76
2023-02-02T05:33:32.875Z,1011.77
2023-02-02T05:34:33.058Z,1011.91
2023-02-02T05:35:33.263Z,1011.76
2023-02-02T05:36:33.422Z,1011.83
2023-02-02T05:37:33.607Z,1011.81
2023-02-02T05:38:33.775Z,1011.86
2023-02-02T05:39:33.953Z,1011.81
2023-02-02T05:40:34.122Z,1011.85
2023-02-02T05:41:34.303Z,1011.86
2023-02-02T05:42:34.526Z,1011.85
2023-02-02T05:43:34.683Z,1011.93
2023-02-02T05:44:34.836Z,1011.91
2023-02-02T05:45:35.088Z,1011.89
2023-02-02T05:46:35.209Z,1011.98
2023-02-02T05:47:35.364Z,1011.96
2023-02-02T05:48:35.594Z,1011.89
2023-02-02T05:49:35.733Z,1012.02
2023-02-02T05:50:35.905Z,1011.97
2023-02-02T05:51:36.092Z,1011.98
2023-02-02T05:52:36.255Z,1012.05
2023-02-02T05:53:36.477Z,1012.02
2023-02-02T05:54:36.617Z,1011.99
2023-02-02T05:55:36.804Z,1012.01
2023-02-02T05:56:36.993Z,1012.10
2023-02-02T05:57:37.187Z,1012.10
2023-02-02T05:58:37.355Z,1012.17
2023-02-02T05:59:37.487Z,1012.13
2023-02-02T06:00:37.687Z,1012.09
2023-02-02T06:01:37.834Z,1012.14
2023-02-02T06:02:38.026Z,1012.21
2023-02-02T06:03:38.291Z,1012.23
2023-02-02T06:04:38.392Z,1012.30
2023-02-02T06:05:38.564Z,1012.24
2023-02-02T06:06:38.766Z,1012.27
2023-02-02T06:07:38.934Z,1012.25
2023-02-02T06:08:39.116Z,1012.29
2023-02-02T06:09:39.290Z,1012.26
2023-02-02T06:10:39.449Z,1012.32
2023-02-02T06:11:39.654Z,1012.30
2023-02-02T06:12:39.814Z,1012.35
2023-02-02T06:13:40.005Z,1012.38
2023-02-02T06:14:40.211Z,1012.46
2023-02-02T06:15:40.386Z,1012.43
2023-02-02T06:16:40.547Z,1012.40
2023-02-02T06:17:40.714Z,1012.42
2023-02-02T06:18:40.922Z,1012.43
2023-02-02T06:19:41.107Z,1012.45
2023-02-02T06:20:41.246Z,1012.49
2023-02-02T06:21:41.428Z,1012.48
2023-02-02T06:22:41.643Z,1012.50
2023-02-02T06:23:41.812Z,1012.49
2023-02-02T06:24:41.973Z,1012.64
2023-02-02T06:25:42.145Z,1012.51
2023-02-02T06:26:42.434Z,1012.59
2023-02-02T06:27:42.491Z,1012.57
2023-02-02T06:28:42.700Z,1012.62
2023-02-02T06:29:42.853Z,1012.55
2023-02-02T06:30:44.197Z,1012.62
2023-02-02T06:31:43.353Z,1012.70
2023-02-02T06:32:43.411Z,1012.68
2023-02-02T06:33:43.584Z,1012.57
2023-02-02T06:34:43.739Z,1012.71
2023-02-02T06:35:43.954Z,1012.71
2023-02-02T06:36:44.116Z,1012.69
2023-02-02T06:37:44.285Z,1012.70
2023-02-02T06:38:44.488Z,1012.80
2023-02-02T06:39:44.634Z,1012.79
2023-02-02T06:40:44.817Z,1012.74
2023-02-02T06:41:44.976Z,1012.86
2023-02-02T06:42:45.209Z,1012.83
2023-02-02T06:43:45.332Z,1012.90
2023-02-02T06:44:45.569Z,1012.90
2023-02-02T06:45:45.677Z,1012.87
2023-02-02T06:46:45.874Z,1012.89
2023-02-02T06:47:46.063Z,1012.92
2023-02-02T06:48:46.221Z,1012.91
2023-02-02T06:49:46.379Z,1012.98
2023-02-02T06:50:46.546Z,1012.95
2023-02-02T06:51:46.713Z,1012.97
2023-02-02T06:52:46.888Z,1013.00
2023-02-02T06:53:47.062Z,1012.96
2023-02-02T06:54:47.241Z,1012.96
2023-02-02T06:55:47.402Z,1012.98
2023-02-02T06:56:47.570Z,1013.01
2023-02-02T06:57:47.757Z,1013.08
2023-02-02T06:58:47.936Z,1012.99
2023-02-02T06:59:48.088Z,1013.07
2023-02-02T07:00:48.272Z,1013.08
2023-02-02T07:01:48.535Z,1013.13
2023-02-02T07:02:48.626Z,1013.16
2023-02-02T07:03:48.789Z,1013.11
2023-02-02T07:04:48.971Z,1013.13
2023-02-02T07:05:49.109Z,1013.27
2023-02-02T07:06:49.279Z,1013.19
2023-02-02T07:07:49.461Z,1013.20
2023-02-02T07:09:02.792Z,1013.23
2023-02-02T07:09:58.138Z,1013.20
2023-02-02T07:11:09.369Z,1013.31
2023-02-02T07:11:51.132Z,1013.29
2023-02-02T07:12:50.303Z,1013.35
2023-02-02T07:13:50.473Z,1013.33
2023-02-02T07:14:50.632Z,1013.39
2023-02-02T07:15:50.861Z,1013.37
2023-02-02T07:16:50.982Z,1013.42
2023-02-02T07:17:51.143Z,1013.37
2023-02-02T07:18:51.297Z,1013.32
2023-02-02T07:19:51.467Z,1013.41
2023-02-02T07:20:51.639Z,1013.35
2023-02-02T07:21:51.800Z,1013.44
2023-02-02T07:22:52.007Z,1013.47
2023-02-02T07:23:52.202Z,1013.53
2023-02-02T07:24:52.424Z,1013.58
2023-02-02T07:25:52.549Z,1013.56
2023-02-02T07:26:52.729Z,1013.53
2023-02-02T07:27:52.905Z,1013.58
2023-02-02T07:28:53.077Z,1013.56
2023-02-02T07:29:53.229Z,1013.59
2023-02-02T07:30:53.475Z,1013.58
2023-02-02T07:31:53.612Z,1013.62
2023-02-02T07:32:53.742Z,1013.59
2023-02-02T07:33:53.894Z,1013.65
2023-02-02T07:34:54.086Z,1013.66
2023-02-02T07:35:54.288Z,1013.62
2023-02-02T07:36:54.444Z,1013.71
2023-02-02T07:37:54.633Z,1013.68
2023-02-02T07:38:54.792Z,1013.64
2023-02-02T07:39:54.981Z,1013.68
2023-02-02T07:40:55.161Z,1013.67
2023-02-02T07:41:55.329Z,1013.71
2023-02-02T07:42:55.517Z,1013.74
2023-02-02T07:43:55.739Z,1013.74
2023-02-02T07:44:55.854Z,1013.75
2023-02-02T07:45:56.023Z,1013.80
2023-02-02T07:46:56.191Z,1013.75
2023-02-02T07:47:56.369Z,1013.78
2023-02-02T07:48:56.542Z,1013.82
2023-02-02T07:49:56.689Z,1013.82
2023-02-02T07:50:56.894Z,1013.85
2023-02-02T07:51:57.033Z,1013.89
2023-02-02T07:52:57.236Z,1013.89
2023-02-02T07:53:57.398Z,1013.86
2023-02-02T07:55:09.059Z,1013.91
2023-02-02T07:55:58.727Z,1013.91
2023-02-02T07:56:57.929Z,1013.99
2023-02-02T07:57:58.097Z,1013.93
2023-02-02T07:58:58.275Z,1014.04
2023-02-02T07:59:58.442Z,1013.98
2023-02-02T08:00:58.747Z,1014.02
2023-02-02T08:01:58.876Z,1014.04
2023-02-02T08:02:58.989Z,1014.02
2023-02-02T08:03:59.158Z,1014.08
2023-02-02T08:04:59.323Z,1014.06
2023-02-02T08:05:59.509Z,1014.06
2023-02-02T08:06:59.666Z,1014.09
2023-02-02T08:07:59.853Z,1014.09
2023-02-02T08:09:00.070Z,1014.11
2023-02-02T08:10:00.217Z,1014.17
2023-02-02T08:11:00.408Z,1014.16
2023-02-02T08:12:00.588Z,1014.17
2023-02-02T08:13:00.748Z,1014.14
2023-02-02T08:14:00.944Z,1014.19
2023-02-02T08:15:01.120Z,1014.17
2023-02-02T08:16:01.316Z,1014.15
2023-02-02T08:17:01.473Z,1014.20
2023-02-02T08:18:01.660Z,1014.26
2023-02-02T08:19:01.873Z,1014.26
2023-02-02T08:20:02.014Z,1014.39
2023-02-02T08:21:02.174Z,1014.35
2023-02-02T08:22:02.380Z,1014.33
2023-02-02T08:23:02.531Z,1014.28
2023-02-02T08:24:02.733Z,1014.38
2023-02-02T08:25:02.904Z,1014.39
2023-02-02T08:26:03.049Z,1014.43
2023-02-02T08:27:03.234Z,1014.44
2023-02-02T08:28:03.404Z,1014.42
2023-02-02T08:29:03.603Z,1014.40
2023-02-02T08:30:03.708Z,1014.42
2023-02-02T08:31:03.881Z,1014.46
2023-02-02T08:32:04.078Z,1014.46
2023-02-02T08:33:04.221Z,1014.52
2023-02-02T08:34:04.448Z,1014.49
2023-02-02T08:35:04.600Z,1014.55
2023-02-02T08:36:04.774Z,1014.61
2023-02-02T08:37:04.969Z,1014.66
2023-02-02T08:38:05.121Z,1014.59
2023-02-02T08:39:05.312Z,1014.59
2023-02-02T08:40:05.498Z,1014.59
2023-02-02T08:41:05.643Z,1014.66
2023-02-02T08:42:05.803Z,1014.75
2023-02-02T08:43:05.953Z,1014.69
2023-02-02T08:44:06.173Z,1014.73
2023-02-02T08:46:03.731Z,1014.65
2023-02-02T08:46:07.524Z,1014.66
2023-02-02T08:47:06.726Z,1014.64
2023-02-02T08:48:12.094Z,1014.73
2023-02-02T08:49:08.082Z,1014.66
2023-02-02T08:50:07.224Z,1014.63
2023-02-02T08:51:07.416Z,1014.66
2023-02-02T08:52:07.591Z,1014.67
2023-02-02T08:53:07.775Z,1014.69
2023-02-02T08:54:07.921Z,1014.72
2023-02-02T08:55:08.082Z,1014.64
2023-02-02T08:56:08.262Z,1014.65
2023-02-02T08:57:08.408Z,1014.66
2023-02-02T08:58:08.585Z,1014.63
2023-02-02T08:59:08.747Z,1014.63
2023-02-02T09:00:08.949Z,1014.67
2023-02-02T09:01:09.116Z,1014.66
2023-02-02T09:02:09.278Z,1014.66
2023-02-02T09:03:09.397Z,1014.69
2023-02-02T09:04:09.569Z,1014.65
2023-02-02T09:05:09.759Z,1014.70
2023-02-02T09:06:09.953Z,1014.73
2023-02-02T09:07:10.083Z,1014.62
2023-02-02T09:08:10.313Z,1014.68
2023-02-02T09:09:10.410Z,1014.69
2023-02-02T09:10:10.622Z,1014.66
2023-02-02T09:11:10.770Z,1014.70
2023-02-02T09:12:10.926Z,1014.66
2023-02-02T09:13:11.099Z,1014.69
2023-02-02T09:14:11.268Z,1014.66
2023-02-02T09:15:11.441Z,1014.59
2023-02-02T09:16:11.646Z,1014.60
2023-02-02T09:17:11.768Z,1014.66
2023-02-02T09:18:11.931Z,1014.62
2023-02-02T09:19:12.131Z,1014.60
2023-02-02T09:20:12.303Z,1014.59
2023-02-02T09:21:12.482Z,1014.56
2023-02-02T09:22:12.642Z,1014.68
2023-02-02T09:23:12.838Z,1014.66
2023-02-02T09:24:13.000Z,1014.69
2023-02-02T09:25:13.194Z,1014.72
2023-02-02T09:26:13.358Z,1014.61
2023-02-02T09:27:13.551Z,1014.75
2023-02-02T09:28:13.706Z,1014.70
2023-02-02T09:29:13.866Z,1014.85
2023-02-02T09:30:14.111Z,1014.88
2023-02-02T09:31:14.314Z,1014.83
2023-02-02T09:32:14.477Z,1014.87
2023-02-02T09:33:14.596Z,1014.89
2023-02-02T09:34:14.777Z,1014.86
2023-02-02T09:35:15.059Z,1014.86
2023-02-02T09:36:15.088Z,1014.90
2023-02-02T09:37:15.409Z,1014.90
2023-02-02T09:38:15.455Z,1014.87
2023-02-02T09:39:15.647Z,1014.91
2023-02-02T09:40:15.806Z,1014.99
2023-02-02T09:41:15.973Z,1014.94
2023-02-02T09:42:16.141Z,1014.97
2023-02-02T09:43:16.297Z,1015.00
2023-02-02T09:44:16.509Z,1015.03
2023-02-02T09:45:16.687Z,1015.03
2023-02-02T09:46:16.935Z,1015.09
2023-02-02T09:47:17.034Z,1015.07
2023-02-02T09:48:17.205Z,1015.12
2023-02-02T09:49:17.341Z,1015.12
2023-02-02T09:50:17.593Z,1015.07
2023-02-02T09:51:17.795Z,1015.11
2023-02-02T09:52:17.872Z,1015.12
2023-02-02T09:53:18.030Z,1015.11
2023-02-02T09:54:18.201Z,1015.14
2023-02-02T09:55:18.373Z,1015.11
2023-02-02T09:56:18.566Z,1015.12
2023-02-02T09:57:18.714Z,1015.09
2023-02-02T09:58:18.906Z,1015.10
2023-02-02T09:59:20.945Z,1015.11
2023-02-02T10:00:19.337Z,1015.10
2023-02-02T10:01:19.456Z,1015.15
2023-02-02T10:02:19.577Z,1014.96
2023-02-02T10:03:19.733Z,1015.09
2023-02-02T10:04:19.934Z,1015.09
2023-02-02T10:05:20.096Z,1015.15
2023-02-02T10:06:20.285Z,1015.16
2023-02-02T10:07:20.423Z,1015.19
2023-02-02T10:08:33.679Z,1015.23
2023-02-02T10:09:21.765Z,1015.20
2023-02-02T10:10:21.063Z,1015.25
2023-02-02T10:11:21.136Z,1015.21
2023-02-02T10:12:21.283Z,1015.28
2023-02-02T10:13:21.424Z,1015.25
2023-02-02T10:14:21.662Z,1015.32
2023-02-02T10:15:21.797Z,1015.31
2023-02-02T10:16:22.027Z,1015.27
2023-02-02T10:17:22.107Z,1015.32
2023-02-02T10:18:22.291Z,1015.24
2023-02-02T10:19:22.466Z,1015.21
2023-02-02T10:20:22.983Z,1015.23
2023-02-02T10:21:22.821Z,1015.34
2023-02-02T10:22:22.983Z,1015.33
2023-02-02T10:23:23.142Z,1015.29
2023-02-02T10:24:23.310Z,1015.29
2023-02-02T10:25:23.502Z,1015.25
2023-02-02T10:26:23.785Z,1015.29
2023-02-02T10:27:23.833Z,1015.34
2023-02-02T10:28:24.008Z,1015.33
2023-02-02T10:29:24.169Z,1015.33
2023-02-02T10:30:24.774Z,1015.38
2023-02-02T10:31:24.613Z,1015.30
2023-02-02T10:32:24.671Z,1015.34
2023-02-02T10:33:24.883Z,1015.32
2023-02-02T10:34:25.001Z,1015.40
2023-02-02T10:35:25.169Z,1015.35
2023-02-02T10:36:25.331Z,1015.38
2023-02-02T10:37:25.504Z,1015.35
2023-02-02T10:38:25.683Z,1015.28
2023-02-02T10:39:25.826Z,1015.37
2023-02-02T10:40:26.315Z,1015.47
2023-02-02T10:41:26.148Z,1015.42
2023-02-02T10:42:26.315Z,1015.44
2023-02-02T10:43:26.502Z,1015.47
2023-02-02T10:44:26.665Z,1015.56
2023-02-02T10:45:26.845Z,1015.58
2023-02-02T10:46:27.027Z,1015.65
2023-02-02T10:47:27.203Z,1015.66
2023-02-02T10:48:27.392Z,1015.64
2023-02-02T10:49:27.540Z,1015.65
2023-02-02T10:50:28.188Z,1015.69
2023-02-02T10:51:27.930Z,1015.72
2023-02-02T10:52:28.056Z,1015.76
2023-02-02T10:53:28.247Z,1015.68
2023-02-02T10:54:28.410Z,1015.68
2023-02-02T10:55:28.580Z,1015.70
2023-02-02T10:56:28.768Z,1015.71
2023-02-02T10:57:28.984Z,1015.69
2023-02-02T10:58:29.152Z,1015.69
2023-02-02T10:59:29.273Z,1015.65
2023-02-02T11:00:29.803Z,1015.65
2023-02-02T11:01:29.689Z,1015.78
2023-02-02T11:02:29.823Z,1015.74
2023-02-02T11:03:29.982Z,1015.75
2023-02-02T11:04:30.152Z,1015.79
2023-02-02T11:05:30.321Z,1015.86
2023-02-02T11:06:30.503Z,1015.79
2023-02-02T11:07:30.661Z,1015.86
2023-02-02T11:08:30.881Z,1015.84
2023-02-02T11:09:30.994Z,1015.95
2023-02-02T11:10:31.173Z,1015.97
2023-02-02T11:11:31.342Z,1015.88
2023-02-02T11:12:31.519Z,1015.90
2023-02-02T11:13:31.677Z,1015.95
2023-02-02T11:14:33.689Z,1015.91
2023-02-02T11:15:32.048Z,1015.89
2023-02-02T11:16:42.211Z,1015.92
2023-02-02T11:17:33.327Z,1015.89
2023-02-02T11:18:32.506Z,1015.90
2023-02-02T11:19:32.681Z,1016.04
2023-02-02T11:20:32.863Z,1016.01
2023-02-02T11:21:33.036Z,1016.00
2023-02-02T11:22:33.229Z,1015.97
2023-02-02T11:23:33.373Z,1015.99
2023-02-02T11:24:33.551Z,1016.04
2023-02-02T11:25:33.744Z,1015.99
2023-02-02T11:26:33.932Z,1016.07
2023-02-02T11:27:34.078Z,1016.05
2023-02-02T11:28:34.223Z,1016.06
2023-02-02T11:29:34.414Z,1016.04
2023-02-02T11:30:34.671Z,1016.08
2023-02-02T11:31:34.879Z,1016.08
2023-02-02T11:32:34.988Z,1016.08
2023-02-02T11:33:35.149Z,1016.01
2023-02-02T11:34:35.316Z,1016.08
2023-02-02T11:35:35.510Z,1016.07
2023-02-02T11:36:35.672Z,1016.10
2023-02-02T11:37:35.810Z,1016.14
2023-02-02T11:38:35.979Z,1016.10
2023-02-02T11:39:36.155Z,1016.13
2023-02-02T11:40:36.381Z,1016.05
2023-02-02T11:41:36.477Z,1016.05
2023-02-02T11:42:36.679Z,1016.06
2023-02-02T11:43:36.838Z,1016.08
2023-02-02T11:44:37.006Z,1016.06
2023-02-02T11:45:37.234Z,1016.18
2023-02-02T11:46:37.457Z,1016.18
2023-02-02T11:47:37.512Z,1016.19
2023-02-02T11:48:37.689Z,1016.20
2023-02-02T11:49:37.843Z,1016.19
2023-02-02T11:50:38.155Z,1016.15
2023-02-02T11:51:38.211Z,1016.20
2023-02-02T11:52:38.351Z,1016.19
2023-02-02T11:53:38.543Z,1016.19
2023-02-02T11:54:38.736Z,1016.18
2023-02-02T11:55:38.912Z,1016.24
2023-02-02T11:56:39.091Z,1016.21
2023-02-02T11:57:39.252Z,1016.24
2023-02-02T11:58:39.426Z,1016.16
2023-02-02T11:59:39.595Z,1016.17
2023-02-02T12:00:39.756Z,1016.17
2023-02-02T12:01:40.128Z,1016.20
2023-02-02T12:02:40.109Z,1016.19
2023-02-02T12:03:40.315Z,1016.31
2023-02-02T12:04:40.407Z,1016.10
2023-02-02T12:05:40.576Z,1016.22
2023-02-02T12:06:40.756Z,1016.20
2023-02-02T12:07:40.923Z,1016.17